CMB840 Details

Departure: Bahrain International Airport (OBBI)
Arrival: Ambouli International Airport (HDAM)
Route: NARMI Q212 KIA G667 PARIM PARIM2V
Notes: USTRANSCOM CONTRACT FLIGHT


Current Weather Information
OBBI 261000Z 08003KT 040V120 7000 NSC 25/19 Q1008 NOSIG
HDAM 260900Z 08013KT 9999 SCT023 32/22 Q1013